sensor_id;sensor_type;location;lat;lon;timestamp;pressure;altitude;pressure_sealevel;temperature;humidity
55442;BME280;41313;58.740;50.174;2022-10-16T00:04:54;101006.69;;;12.65;47.02
55442;BME280;41313;58.740;50.174;2022-10-16T00:09:56;100996.03;;;12.67;47.52
55442;BME280;41313;58.740;50.174;2022-10-16T00:14:58;101004.75;;;12.69;47.32
55442;BME280;41313;58.740;50.174;2022-10-16T00:19:59;101003.22;;;12.82;46.96
55442;BME280;41313;58.740;50.174;2022-10-16T00:25:19;101017.56;;;12.58;47.65
55442;BME280;41313;58.740;50.174;2022-10-16T00:30:20;101016.22;;;12.49;47.72
55442;BME280;41313;58.740;50.174;2022-10-16T00:35:22;101008.53;;;12.63;47.36
55442;BME280;41313;58.740;50.174;2022-10-16T00:40:24;101015.38;;;12.67;46.83
55442;BME280;41313;58.740;50.174;2022-10-16T00:45:25;101014.13;;;12.38;47.87
55442;BME280;41313;58.740;50.174;2022-10-16T00:50:30;101021.66;;;12.65;47.71
55442;BME280;41313;58.740;50.174;2022-10-16T00:55:33;101026.22;;;12.61;47.59
55442;BME280;41313;58.740;50.174;2022-10-16T01:00:34;101021.66;;;12.46;48.22
55442;BME280;41313;58.740;50.174;2022-10-16T01:05:46;101030.06;;;12.54;47.87
55442;BME280;41313;58.740;50.174;2022-10-16T01:11:03;101024.16;;;12.30;48.48
55442;BME280;41313;58.740;50.174;2022-10-16T01:16:18;101023.06;;;12.34;48.59
55442;BME280;41313;58.740;50.174;2022-10-16T01:21:29;101032.19;;;12.46;48.26
55442;BME280;41313;58.740;50.174;2022-10-16T01:26:44;101045.53;;;12.43;48.09
55442;BME280;41313;58.740;50.174;2022-10-16T01:31:59;101042.56;;;12.31;48.18
55442;BME280;41313;58.740;50.174;2022-10-16T01:37:09;101038.06;;;12.52;48.12
55442;BME280;41313;58.740;50.174;2022-10-16T01:42:23;101047.72;;;12.71;47.35
55442;BME280;41313;58.740;50.174;2022-10-16T01:47:27;101047.03;;;12.48;48.23
55442;BME280;41313;58.740;50.174;2022-10-16T01:52:34;101039.06;;;12.50;48.11
55442;BME280;41313;58.740;50.174;2022-10-16T01:57:41;101045.31;;;12.47;48.26
55442;BME280;41313;58.740;50.174;2022-10-16T02:02:47;101047.31;;;12.42;48.26
55442;BME280;41313;58.740;50.174;2022-10-16T02:07:50;101052.00;;;12.54;48.15
55442;BME280;41313;58.740;50.174;2022-10-16T02:13:09;101052.53;;;12.44;48.16
55442;BME280;41313;58.740;50.174;2022-10-16T02:18:32;101054.16;;;12.46;48.42
55442;BME280;41313;58.740;50.174;2022-10-16T02:23:39;101060.34;;;12.45;48.49
55442;BME280;41313;58.740;50.174;2022-10-16T02:28:51;101052.31;;;12.67;47.96
55442;BME280;41313;58.740;50.174;2022-10-16T02:33:58;101053.75;;;12.73;47.95
55442;BME280;41313;58.740;50.174;2022-10-16T02:39:00;101059.06;;;12.54;48.64
55442;BME280;41313;58.740;50.174;2022-10-16T02:44:02;101058.66;;;12.44;48.77
55442;BME280;41313;58.740;50.174;2022-10-16T02:49:04;101051.34;;;12.68;48.74
55442;BME280;41313;58.740;50.174;2022-10-16T02:54:06;101054.28;;;12.62;48.80
55442;BME280;41313;58.740;50.174;2022-10-16T02:59:08;101063.25;;;12.77;48.40
55442;BME280;41313;58.740;50.174;2022-10-16T03:04:09;101065.66;;;12.82;48.41
55442;BME280;41313;58.740;50.174;2022-10-16T03:09:11;101066.28;;;12.87;48.28
55442;BME280;41313;58.740;50.174;2022-10-16T03:14:13;101069.22;;;12.81;48.02
55442;BME280;41313;58.740;50.174;2022-10-16T03:19:16;101066.38;;;12.85;48.14
55442;BME280;41313;58.740;50.174;2022-10-16T03:24:18;101073.81;;;12.58;48.53
55442;BME280;41313;58.740;50.174;2022-10-16T03:29:20;101085.81;;;12.46;49.04
55442;BME280;41313;58.740;50.174;2022-10-16T03:34:21;101083.94;;;12.67;48.95
55442;BME280;41313;58.740;50.174;2022-10-16T03:39:23;101100.47;;;12.52;48.85
55442;BME280;41313;58.740;50.174;2022-10-16T03:44:25;101094.47;;;12.48;49.01
55442;BME280;41313;58.740;50.174;2022-10-16T03:49:27;101097.53;;;12.58;48.82
55442;BME280;41313;58.740;50.174;2022-10-16T03:54:28;101100.25;;;12.38;49.70
55442;BME280;41313;58.740;50.174;2022-10-16T03:59:30;101104.03;;;12.32;50.13
55442;BME280;41313;58.740;50.174;2022-10-16T04:04:31;101112.03;;;12.49;49.83
55442;BME280;41313;58.740;50.174;2022-10-16T04:09:33;101115.66;;;12.66;49.46
55442;BME280;41313;58.740;50.174;2022-10-16T04:14:34;101121.50;;;12.53;49.37
55442;BME280;41313;58.740;50.174;2022-10-16T04:19:36;101132.63;;;12.79;49.12
55442;BME280;41313;58.740;50.174;2022-10-16T04:24:37;101133.91;;;12.70;49.17
55442;BME280;41313;58.740;50.174;2022-10-16T04:29:39;101137.66;;;12.84;49.03
55442;BME280;41313;58.740;50.174;2022-10-16T04:34:40;101147.88;;;12.91;48.98
55442;BME280;41313;58.740;50.174;2022-10-16T04:39:42;101134.69;;;12.91;48.68
55442;BME280;41313;58.740;50.174;2022-10-16T04:44:44;101146.78;;;12.95;48.85
55442;BME280;41313;58.740;50.174;2022-10-16T04:49:45;101139.50;;;12.82;49.45
55442;BME280;41313;58.740;50.174;2022-10-16T04:54:46;101144.22;;;12.75;49.28
55442;BME280;41313;58.740;50.174;2022-10-16T04:59:48;101139.72;;;12.58;50.02
55442;BME280;41313;58.740;50.174;2022-10-16T05:04:50;101135.03;;;12.65;49.99
55442;BME280;41313;58.740;50.174;2022-10-16T05:09:51;101146.34;;;12.48;50.59
55442;BME280;41313;58.740;50.174;2022-10-16T05:14:53;101151.78;;;12.64;49.94
55442;BME280;41313;58.740;50.174;2022-10-16T05:19:59;101151.41;;;12.90;49.74
55442;BME280;41313;58.740;50.174;2022-10-16T05:25:00;101157.56;;;12.72;50.32
55442;BME280;41313;58.740;50.174;2022-10-16T05:30:04;101162.19;;;12.67;50.12
55442;BME280;41313;58.740;50.174;2022-10-16T05:35:06;101167.59;;;12.64;50.67
55442;BME280;41313;58.740;50.174;2022-10-16T05:40:09;101166.91;;;12.79;50.51
55442;BME280;41313;58.740;50.174;2022-10-16T05:45:11;101162.75;;;13.30;49.78
55442;BME280;41313;58.740;50.174;2022-10-16T05:50:13;101157.97;;;13.56;48.89
55442;BME280;41313;58.740;50.174;2022-10-16T05:55:15;101155.31;;;13.38;49.79
55442;BME280;41313;58.740;50.174;2022-10-16T06:00:16;101158.16;;;13.87;49.00
55442;BME280;41313;58.740;50.174;2022-10-16T06:05:18;101167.19;;;13.83;49.27
55442;BME280;41313;58.740;50.174;2022-10-16T06:10:20;101164.22;;;14.07;48.91
55442;BME280;41313;58.740;50.174;2022-10-16T06:15:21;101169.59;;;14.39;48.54
55442;BME280;41313;58.740;50.174;2022-10-16T06:20:23;101164.91;;;14.61;48.43
55442;BME280;41313;58.740;50.174;2022-10-16T06:25:25;101169.69;;;14.70;48.71
55442;BME280;41313;58.740;50.174;2022-10-16T06:30:26;101179.78;;;14.95;48.01
55442;BME280;41313;58.740;50.174;2022-10-16T06:35:28;101183.16;;;14.66;48.59
55442;BME280;41313;58.740;50.174;2022-10-16T06:40:30;101186.44;;;14.87;48.21
55442;BME280;41313;58.740;50.174;2022-10-16T06:45:32;101192.56;;;15.35;47.73
55442;BME280;41313;58.740;50.174;2022-10-16T06:50:33;101193.38;;;15.05;48.04
55442;BME280;41313;58.740;50.174;2022-10-16T06:55:35;101194.88;;;14.77;48.94
55442;BME280;41313;58.740;50.174;2022-10-16T07:00:37;101188.81;;;14.75;49.12
55442;BME280;41313;58.740;50.174;2022-10-16T07:05:42;101187.03;;;14.92;49.53
55442;BME280;41313;58.740;50.174;2022-10-16T07:10:44;101191.69;;;14.55;50.49
55442;BME280;41313;58.740;50.174;2022-10-16T07:15:46;101204.38;;;15.13;49.03
55442;BME280;41313;58.740;50.174;2022-10-16T07:20:48;101200.47;;;15.20;48.97
55442;BME280;41313;58.740;50.174;2022-10-16T07:25:54;101206.00;;;15.32;49.00
55442;BME280;41313;58.740;50.174;2022-10-16T07:31:03;101208.25;;;15.23;49.26
55442;BME280;41313;58.740;50.174;2022-10-16T07:36:06;101201.22;;;15.38;49.18
55442;BME280;41313;58.740;50.174;2022-10-16T07:41:13;101198.78;;;15.49;49.39
55442;BME280;41313;58.740;50.174;2022-10-16T07:46:15;101202.97;;;15.69;49.08
55442;BME280;41313;58.740;50.174;2022-10-16T07:51:20;101206.06;;;15.78;48.60
55442;BME280;41313;58.740;50.174;2022-10-16T07:56:22;101205.97;;;15.63;49.27
55442;BME280;41313;58.740;50.174;2022-10-16T08:01:24;101199.16;;;15.59;49.41
55442;BME280;41313;58.740;50.174;2022-10-16T08:06:25;101208.59;;;15.63;48.89
55442;BME280;41313;58.740;50.174;2022-10-16T08:11:27;101197.31;;;15.91;48.37
55442;BME280;41313;58.740;50.174;2022-10-16T08:16:29;101208.09;;;15.88;48.62
55442;BME280;41313;58.740;50.174;2022-10-16T08:21:30;101202.63;;;15.60;49.36
55442;BME280;41313;58.740;50.174;2022-10-16T08:26:32;101210.81;;;15.87;48.80
55442;BME280;41313;58.740;50.174;2022-10-16T08:31:33;101207.38;;;15.70;49.45
55442;BME280;41313;58.740;50.174;2022-10-16T08:36:35;101200.94;;;15.43;49.98
55442;BME280;41313;58.740;50.174;2022-10-16T08:47:20;101205.06;;;15.17;50.47
55442;BME280;41313;58.740;50.174;2022-10-16T08:52:29;101217.34;;;15.34;50.13
55442;BME280;41313;58.740;50.174;2022-10-16T08:57:32;101219.22;;;15.32;50.44
55442;BME280;41313;58.740;50.174;2022-10-16T09:02:37;101215.91;;;15.44;49.71
55442;BME280;41313;58.740;50.174;2022-10-16T09:18:58;101196.13;;;15.65;49.88
55442;BME280;41313;58.740;50.174;2022-10-16T09:24:13;101205.88;;;15.81;49.96
55442;BME280;41313;58.740;50.174;2022-10-16T09:29:17;101202.00;;;16.16;49.08
55442;BME280;41313;58.740;50.174;2022-10-16T09:34:36;101205.44;;;16.47;49.05
55442;BME280;41313;58.740;50.174;2022-10-16T09:39:53;101204.50;;;16.48;48.95
55442;BME280;41313;58.740;50.174;2022-10-16T09:44:55;101197.66;;;16.58;48.73
55442;BME280;41313;58.740;50.174;2022-10-16T09:49:58;101205.25;;;16.64;48.41
55442;BME280;41313;58.740;50.174;2022-10-16T09:55:18;101199.97;;;16.79;47.69
55442;BME280;41313;58.740;50.174;2022-10-16T10:00:21;101200.50;;;16.98;47.44
55442;BME280;41313;58.740;50.174;2022-10-16T10:05:25;101194.81;;;17.04;47.25
55442;BME280;41313;58.740;50.174;2022-10-16T10:10:29;101196.63;;;17.31;46.58
55442;BME280;41313;58.740;50.174;2022-10-16T10:15:34;101203.31;;;17.24;47.13
55442;BME280;41313;58.740;50.174;2022-10-16T10:20:38;101198.44;;;16.89;47.38
55442;BME280;41313;58.740;50.174;2022-10-16T10:25:52;101203.75;;;16.75;47.45
55442;BME280;41313;58.740;50.174;2022-10-16T10:36:35;101213.69;;;16.85;47.30
55442;BME280;41313;58.740;50.174;2022-10-16T10:46:57;101205.16;;;17.36;46.31
55442;BME280;41313;58.740;50.174;2022-10-16T10:52:10;101208.66;;;17.64;45.60
55442;BME280;41313;58.740;50.174;2022-10-16T10:57:41;101203.91;;;17.42;45.80
55442;BME280;41313;58.740;50.174;2022-10-16T11:02:55;101203.63;;;17.46;45.59
55442;BME280;41313;58.740;50.174;2022-10-16T11:08:08;101208.13;;;17.59;45.29
55442;BME280;41313;58.740;50.174;2022-10-16T11:13:35;101207.38;;;17.57;45.10
55442;BME280;41313;58.740;50.174;2022-10-16T11:18:52;101202.41;;;17.65;44.98
55442;BME280;41313;58.740;50.174;2022-10-16T11:24:01;101193.38;;;17.94;44.33
55442;BME280;41313;58.740;50.174;2022-10-16T11:29:14;101196.88;;;18.08;44.02
55442;BME280;41313;58.740;50.174;2022-10-16T11:39:28;101192.69;;;17.51;43.59
55442;BME280;41313;58.740;50.174;2022-10-16T11:44:54;101195.53;;;17.75;42.77
55442;BME280;41313;58.740;50.174;2022-10-16T11:55:19;101203.41;;;17.22;43.48
55442;BME280;41313;58.740;50.174;2022-10-16T12:00:27;101209.88;;;17.99;42.15
55442;BME280;41313;58.740;50.174;2022-10-16T12:10:39;101203.78;;;17.85;41.86
55442;BME280;41313;58.740;50.174;2022-10-16T12:15:41;101195.94;;;18.09;41.84
55442;BME280;41313;58.740;50.174;2022-10-16T12:20:54;101201.44;;;17.66;43.09
55442;BME280;41313;58.740;50.174;2022-10-16T12:26:01;101196.84;;;17.82;42.39
55442;BME280;41313;58.740;50.174;2022-10-16T12:31:06;101200.81;;;17.62;42.81
55442;BME280;41313;58.740;50.174;2022-10-16T12:36:13;101190.25;;;17.61;42.89
55442;BME280;41313;58.740;50.174;2022-10-16T12:41:35;101194.09;;;17.57;42.76
55442;BME280;41313;58.740;50.174;2022-10-16T12:46:40;101192.19;;;17.59;42.35
55442;BME280;41313;58.740;50.174;2022-10-16T12:51:42;101192.00;;;17.62;41.96
55442;BME280;41313;58.740;50.174;2022-10-16T13:18:13;101180.00;;;17.15;42.90
55442;BME280;41313;58.740;50.174;2022-10-16T13:23:26;101177.56;;;16.97;43.48
55442;BME280;41313;58.740;50.174;2022-10-16T13:28:33;101178.53;;;16.82;43.55
55442;BME280;41313;58.740;50.174;2022-10-16T13:33:46;101184.69;;;16.82;43.31
55442;BME280;41313;58.740;50.174;2022-10-16T13:39:14;101190.41;;;16.76;43.63
55442;BME280;41313;58.740;50.174;2022-10-16T13:44:20;101189.72;;;16.73;43.56
55442;BME280;41313;58.740;50.174;2022-10-16T13:49:22;101186.69;;;16.36;44.28
55442;BME280;41313;58.740;50.174;2022-10-16T13:54:24;101188.69;;;16.02;45.38
55442;BME280;41313;58.740;50.174;2022-10-16T13:59:33;101185.63;;;16.38;44.31
55442;BME280;41313;58.740;50.174;2022-10-16T14:04:38;101185.94;;;16.48;43.79
55442;BME280;41313;58.740;50.174;2022-10-16T14:09:40;101189.69;;;16.44;43.58
55442;BME280;41313;58.740;50.174;2022-10-16T14:14:44;101197.63;;;16.30;43.84
55442;BME280;41313;58.740;50.174;2022-10-16T14:19:48;101197.63;;;16.30;43.46
55442;BME280;41313;58.740;50.174;2022-10-16T14:24:51;101209.97;;;16.31;43.55
55442;BME280;41313;58.740;50.174;2022-10-16T14:35:42;101198.38;;;16.17;43.55
55442;BME280;41313;58.740;50.174;2022-10-16T14:40:49;101198.53;;;16.30;43.04
55442;BME280;41313;58.740;50.174;2022-10-16T14:45:55;101198.97;;;16.23;42.96
55442;BME280;41313;58.740;50.174;2022-10-16T14:50:58;101195.34;;;16.24;43.02
55442;BME280;41313;58.740;50.174;2022-10-16T14:56:09;101199.22;;;16.18;43.10
55442;BME280;41313;58.740;50.174;2022-10-16T15:01:15;101187.38;;;15.95;43.65
55442;BME280;41313;58.740;50.174;2022-10-16T15:06:17;101196.03;;;15.83;43.74
55442;BME280;41313;58.740;50.174;2022-10-16T15:11:19;101193.88;;;15.89;43.36
55442;BME280;41313;58.740;50.174;2022-10-16T15:16:21;101206.72;;;15.81;43.30
55442;BME280;41313;58.740;50.174;2022-10-16T15:21:26;101203.94;;;15.68;43.58
55442;BME280;41313;58.740;50.174;2022-10-16T15:26:29;101199.06;;;15.77;42.92
55442;BME280;41313;58.740;50.174;2022-10-16T15:31:31;101200.06;;;15.58;43.13
55442;BME280;41313;58.740;50.174;2022-10-16T15:36:35;101203.41;;;15.78;42.85
55442;BME280;41313;58.740;50.174;2022-10-16T15:41:37;101205.03;;;15.80;42.46
55442;BME280;41313;58.740;50.174;2022-10-16T15:46:39;101205.09;;;15.79;42.89
55442;BME280;41313;58.740;50.174;2022-10-16T15:51:41;101203.50;;;15.60;42.80
55442;BME280;41313;58.740;50.174;2022-10-16T15:56:43;101208.78;;;15.60;42.89
55442;BME280;41313;58.740;50.174;2022-10-16T16:01:46;101200.41;;;15.52;43.03
55442;BME280;41313;58.740;50.174;2022-10-16T16:06:48;101203.13;;;15.66;42.75
55442;BME280;41313;58.740;50.174;2022-10-16T16:11:50;101200.94;;;15.75;42.26
55442;BME280;41313;58.740;50.174;2022-10-16T16:16:57;101203.75;;;15.71;42.37
55442;BME280;41313;58.740;50.174;2022-10-16T16:21:58;101201.00;;;15.73;42.46
55442;BME280;41313;58.740;50.174;2022-10-16T16:27:00;101203.41;;;15.62;42.50
55442;BME280;41313;58.740;50.174;2022-10-16T16:32:01;101202.63;;;15.76;41.98
55442;BME280;41313;58.740;50.174;2022-10-16T16:37:03;101198.88;;;15.80;41.96
55442;BME280;41313;58.740;50.174;2022-10-16T16:42:04;101208.00;;;15.58;42.31
55442;BME280;41313;58.740;50.174;2022-10-16T16:47:09;101210.53;;;15.30;42.77
55442;BME280;41313;58.740;50.174;2022-10-16T16:52:10;101197.19;;;15.47;42.38
55442;BME280;41313;58.740;50.174;2022-10-16T16:57:12;101213.00;;;15.33;42.79
55442;BME280;41313;58.740;50.174;2022-10-16T17:02:14;101207.47;;;15.21;43.07
55442;BME280;41313;58.740;50.174;2022-10-16T17:07:15;101217.88;;;15.09;43.11
55442;BME280;41313;58.740;50.174;2022-10-16T17:12:17;101218.47;;;15.30;42.46
55442;BME280;41313;58.740;50.174;2022-10-16T17:17:18;101207.72;;;15.33;42.31
55442;BME280;41313;58.740;50.174;2022-10-16T17:22:20;101208.59;;;15.17;42.58
55442;BME280;41313;58.740;50.174;2022-10-16T17:27:22;101203.34;;;15.16;42.53
55442;BME280;41313;58.740;50.174;2022-10-16T17:32:23;101209.09;;;15.08;42.81
55442;BME280;41313;58.740;50.174;2022-10-16T17:37:25;101209.25;;;14.56;44.07
55442;BME280;41313;58.740;50.174;2022-10-16T17:42:27;101205.28;;;14.30;44.33
55442;BME280;41313;58.740;50.174;2022-10-16T17:47:28;101215.66;;;14.34;44.24
55442;BME280;41313;58.740;50.174;2022-10-16T17:52:30;101209.25;;;14.39;44.11
55442;BME280;41313;58.740;50.174;2022-10-16T17:57:31;101212.22;;;14.32;44.05
55442;BME280;41313;58.740;50.174;2022-10-16T18:02:33;101210.34;;;14.34;43.93
55442;BME280;41313;58.740;50.174;2022-10-16T18:07:35;101209.09;;;14.42;43.86
55442;BME280;41313;58.740;50.174;2022-10-16T18:12:36;101202.91;;;14.25;43.80
55442;BME280;41313;58.740;50.174;2022-10-16T18:17:38;101206.94;;;14.15;44.07
55442;BME280;41313;58.740;50.174;2022-10-16T18:22:39;101205.72;;;14.22;43.48
55442;BME280;41313;58.740;50.174;2022-10-16T18:27:41;101203.91;;;14.05;43.84
55442;BME280;41313;58.740;50.174;2022-10-16T18:32:42;101206.56;;;13.88;44.52
55442;BME280;41313;58.740;50.174;2022-10-16T18:37:44;101207.31;;;13.73;45.00
55442;BME280;41313;58.740;50.174;2022-10-16T18:42:46;101199.47;;;13.88;44.26
55442;BME280;41313;58.740;50.174;2022-10-16T18:47:47;101198.47;;;13.74;44.83
55442;BME280;41313;58.740;50.174;2022-10-16T18:52:49;101199.03;;;13.80;44.57
55442;BME280;41313;58.740;50.174;2022-10-16T18:57:50;101192.09;;;13.60;44.56
55442;BME280;41313;58.740;50.174;2022-10-16T19:02:52;101185.47;;;13.52;44.60
55442;BME280;41313;58.740;50.174;2022-10-16T19:07:53;101187.72;;;13.42;45.16
55442;BME280;41313;58.740;50.174;2022-10-16T19:12:55;101188.78;;;13.74;44.45
55442;BME280;41313;58.740;50.174;2022-10-16T19:17:57;101189.59;;;13.57;44.61
55442;BME280;41313;58.740;50.174;2022-10-16T19:22:58;101196.25;;;13.47;45.06
55442;BME280;41313;58.740;50.174;2022-10-16T19:28:00;101187.03;;;13.73;44.62
55442;BME280;41313;58.740;50.174;2022-10-16T19:33:07;101193.75;;;13.80;44.94
55442;BME280;41313;58.740;50.174;2022-10-16T19:38:09;101187.25;;;14.21;43.75
55442;BME280;41313;58.740;50.174;2022-10-16T19:43:10;101180.47;;;14.32;43.88
55442;BME280;41313;58.740;50.174;2022-10-16T19:48:12;101183.59;;;14.41;43.72
55442;BME280;41313;58.740;50.174;2022-10-16T19:53:14;101173.84;;;14.41;44.15
55442;BME280;41313;58.740;50.174;2022-10-16T19:58:15;101182.88;;;14.54;43.99
55442;BME280;41313;58.740;50.174;2022-10-16T20:03:17;101179.44;;;14.19;44.54
55442;BME280;41313;58.740;50.174;2022-10-16T20:08:19;101178.19;;;14.09;44.82
55442;BME280;41313;58.740;50.174;2022-10-16T20:13:21;101184.78;;;14.18;44.81
55442;BME280;41313;58.740;50.174;2022-10-16T20:18:22;101184.53;;;14.40;44.19
55442;BME280;41313;58.740;50.174;2022-10-16T20:23:24;101187.94;;;14.59;43.63
55442;BME280;41313;58.740;50.174;2022-10-16T20:28:25;101189.19;;;14.34;44.68
55442;BME280;41313;58.740;50.174;2022-10-16T20:33:27;101194.81;;;14.28;44.62
55442;BME280;41313;58.740;50.174;2022-10-16T20:38:28;101195.69;;;14.45;44.59
55442;BME280;41313;58.740;50.174;2022-10-16T20:43:30;101200.16;;;14.44;44.17
55442;BME280;41313;58.740;50.174;2022-10-16T20:48:32;101190.38;;;14.29;44.83
55442;BME280;41313;58.740;50.174;2022-10-16T20:53:33;101197.03;;;14.36;44.46
55442;BME280;41313;58.740;50.174;2022-10-16T20:58:35;101185.28;;;14.42;44.39
55442;BME280;41313;58.740;50.174;2022-10-16T21:03:37;101189.41;;;14.65;44.38
55442;BME280;41313;58.740;50.174;2022-10-16T21:08:41;101192.31;;;14.43;44.70
55442;BME280;41313;58.740;50.174;2022-10-16T21:13:43;101192.88;;;14.65;44.34
55442;BME280;41313;58.740;50.174;2022-10-16T21:18:45;101190.56;;;14.42;44.56
55442;BME280;41313;58.740;50.174;2022-10-16T21:23:48;101196.09;;;14.54;44.56
55442;BME280;41313;58.740;50.174;2022-10-16T21:28:50;101194.75;;;14.63;44.42
55442;BME280;41313;58.740;50.174;2022-10-16T21:33:51;101191.91;;;14.33;44.92
55442;BME280;41313;58.740;50.174;2022-10-16T21:38:53;101201.28;;;14.73;44.28
55442;BME280;41313;58.740;50.174;2022-10-16T21:43:56;101196.38;;;14.66;44.46
55442;BME280;41313;58.740;50.174;2022-10-16T21:49:00;101195.53;;;14.65;44.47
55442;BME280;41313;58.740;50.174;2022-10-16T21:54:04;101192.53;;;14.55;44.84
55442;BME280;41313;58.740;50.174;2022-10-16T21:59:06;101191.19;;;14.80;44.22
55442;BME280;41313;58.740;50.174;2022-10-16T22:04:13;101188.38;;;14.67;44.78
55442;BME280;41313;58.740;50.174;2022-10-16T22:09:15;101181.09;;;14.55;44.70
55442;BME280;41313;58.740;50.174;2022-10-16T22:14:18;101183.09;;;14.50;45.11
55442;BME280;41313;58.740;50.174;2022-10-16T22:19:21;101180.44;;;14.67;44.62
55442;BME280;41313;58.740;50.174;2022-10-16T22:24:23;101180.28;;;14.70;44.49
55442;BME280;41313;58.740;50.174;2022-10-16T22:29:25;101186.75;;;14.80;44.25
55442;BME280;41313;58.740;50.174;2022-10-16T22:34:26;101186.09;;;14.93;44.21
55442;BME280;41313;58.740;50.174;2022-10-16T22:39:29;101180.28;;;14.70;44.64
55442;BME280;41313;58.740;50.174;2022-10-16T22:44:31;101179.03;;;14.60;45.06
55442;BME280;41313;58.740;50.174;2022-10-16T22:49:32;101177.44;;;14.57;45.03
55442;BME280;41313;58.740;50.174;2022-10-16T22:54:34;101175.66;;;14.74;44.49
55442;BME280;41313;58.740;50.174;2022-10-16T22:59:36;101162.94;;;14.80;44.50
55442;BME280;41313;58.740;50.174;2022-10-16T23:04:37;101165.88;;;14.76;44.44
55442;BME280;41313;58.740;50.174;2022-10-16T23:09:39;101171.66;;;14.82;44.45
55442;BME280;41313;58.740;50.174;2022-10-16T23:14:40;101166.22;;;14.86;44.26
55442;BME280;41313;58.740;50.174;2022-10-16T23:19:42;101160.34;;;14.96;44.18
55442;BME280;41313;58.740;50.174;2022-10-16T23:24:43;101158.25;;;14.86;44.45
55442;BME280;41313;58.740;50.174;2022-10-16T23:29:45;101161.16;;;14.81;44.10
55442;BME280;41313;58.740;50.174;2022-10-16T23:34:46;101155.78;;;14.82;44.03
55442;BME280;41313;58.740;50.174;2022-10-16T23:39:49;101153.38;;;14.62;44.29
55442;BME280;41313;58.740;50.174;2022-10-16T23:44:51;101147.97;;;14.30;44.56
55442;BME280;41313;58.740;50.174;2022-10-16T23:49:52;101139.63;;;14.05;45.05
55442;BME280;41313;58.740;50.174;2022-10-16T23:54:53;101139.13;;;13.81;45.17
55442;BME280;41313;58.740;50.174;2022-10-16T23:59:55;101135.16;;;13.89;45.11
